Time;durP1;ratioP1;P1;durP2;ratioP2;P2;SDS_P1;SDS_P2;PMS_P1;PMS_P2;Temp;Humidity;BMP_temperature;BMP_pressure;BME280_temperature;BME280_humidity;BME280_pressure;Samples;Min_cycle;Max_cycle;Signal;HPM_P1;HPM_P2
2021/12/01 00:03:41;;;;;;;13.85;7.82;;;;;;;19.10;53.04;96388.91;10455108;28;20052;-22
2021/12/01 00:08:41;;;;;;;12.90;8.20;;;;;;;19.08;53.25;96385.56;10456761;28;20040;-22
2021/12/01 00:13:42;;;;;;;9.40;6.20;;;;;;;19.04;53.33;96399.09;10456963;28;20040;-22
2021/12/01 00:18:42;;;;;;;12.10;6.95;;;;;;;19.08;53.26;96385.56;10462036;28;20809;-22
2021/12/01 00:23:42;;;;;;;12.23;7.20;;;;;;;19.04;53.16;96394.03;10468872;28;20052;-22
2021/12/01 00:28:43;;;;;;;13.10;5.80;;;;;;;19.01;53.41;96394.06;10470462;28;20748;-23
2021/12/01 00:33:43;;;;;;;9.30;5.93;;;;;;;19.05;53.36;96385.56;10462899;28;20481;-22
2021/12/01 00:38:45;;;;;;;13.95;6.35;;;;;;;19.07;53.51;96388.94;10464718;28;20039;-21
2021/12/01 00:43:45;;;;;;;9.30;6.93;;;;;;;19.06;53.13;96372.03;10461065;28;20036;-22
2021/12/01 00:48:45;;;;;;;11.23;5.70;;;;;;;19.00;53.46;96372.09;10464996;28;20028;-22
2021/12/01 00:53:46;;;;;;;10.93;6.83;;;;;;;18.98;53.47;96354.34;10466217;28;20043;-22
2021/12/01 00:58:46;;;;;;;9.73;6.72;;;;;;;19.01;53.51;96359.38;10467278;28;20033;-22
2021/12/01 01:03:48;;;;;;;13.40;6.72;;;;;;;18.99;53.61;96339.97;10466351;28;20036;-22
2021/12/01 01:08:49;;;;;;;12.82;6.80;;;;;;;19.05;53.58;96327.22;10465930;28;20373;-22
2021/12/01 01:19:14;;;;;;;9.88;5.82;;;;;;;19.03;53.60;96311.16;10465627;28;20506;-21
2021/12/01 01:24:17;;;;;;;8.18;5.85;;;;;;;19.03;53.58;96308.63;10475345;28;20048;-21
2021/12/01 01:29:21;;;;;;;11.93;6.43;;;;;;;19.03;53.79;96293.41;10466864;28;20459;-22
2021/12/01 01:34:22;;;;;;;12.05;5.63;;;;;;;19.06;53.40;96303.50;10461615;28;20460;-22
2021/12/01 01:39:23;;;;;;;9.57;6.13;;;;;;;19.02;53.57;96297.63;10468132;28;20120;-21
2021/12/01 01:44:23;;;;;;;9.73;5.47;;;;;;;19.00;53.80;96301.06;10468165;28;20033;-22
2021/12/01 01:49:47;;;;;;;8.93;5.47;;;;;;;19.01;53.59;96279.91;10463364;28;20028;-21
2021/12/01 01:54:47;;;;;;;8.65;4.50;;;;;;;19.02;53.58;96266.34;10461381;28;20128;-22
2021/12/01 01:59:48;;;;;;;9.73;5.22;;;;;;;19.00;53.63;96246.06;10458358;28;20043;-22
2021/12/01 02:04:48;;;;;;;9.17;5.13;;;;;;;18.99;53.61;96241.84;10460851;28;20409;-22
2021/12/01 02:09:49;;;;;;;7.10;5.15;;;;;;;18.94;53.25;96219.94;10463192;28;20271;-23
2021/12/01 02:14:49;;;;;;;7.97;4.93;;;;;;;18.98;53.52;96214.81;10465645;28;20389;-21
2021/12/01 02:19:53;;;;;;;7.68;5.05;;;;;;;18.98;53.56;96222.41;10460593;28;20290;-22
2021/12/01 02:24:53;;;;;;;8.52;5.05;;;;;;;18.95;53.40;96193.69;10466846;28;20582;-22
2021/12/01 02:29:54;;;;;;;9.73;5.43;;;;;;;19.00;53.41;96189.44;10465090;28;20081;-21
2021/12/01 02:34:54;;;;;;;8.83;4.93;;;;;;;18.94;53.58;96174.25;10465788;28;20028;-23
2021/12/01 02:39:55;;;;;;;8.30;5.70;;;;;;;18.89;53.57;96164.16;10460526;28;20294;-22
2021/12/01 02:44:56;;;;;;;8.18;5.35;;;;;;;18.96;53.55;96164.94;10460281;28;20389;-21
2021/12/01 02:49:56;;;;;;;8.55;4.78;;;;;;;18.97;53.64;96137.03;10460601;28;20036;-22
2021/12/01 02:54:58;;;;;;;11.00;4.97;;;;;;;19.00;53.55;96129.38;10459297;28;20041;-22
2021/12/01 02:59:58;;;;;;;8.15;4.47;;;;;;;18.95;53.65;96104.91;10460761;28;20032;-22
2021/12/01 03:04:58;;;;;;;9.87;4.63;;;;;;;18.96;53.58;96098.97;10467472;28;20024;-22
2021/12/01 03:09:59;;;;;;;9.88;4.85;;;;;;;18.99;53.43;96079.50;10459394;28;20036;-22
2021/12/01 03:15:00;;;;;;;6.13;4.30;;;;;;;18.95;53.54;96080.41;10459682;28;20040;-22
2021/12/01 03:20:01;;;;;;;6.22;4.43;;;;;;;19.01;53.44;96071.88;10457909;28;20441;-22
2021/12/01 03:25:06;;;;;;;5.85;4.35;;;;;;;18.99;53.46;96068.53;10462311;28;20033;-21
2021/12/01 03:30:09;;;;;;;6.77;4.23;;;;;;;19.00;53.51;96053.25;10458867;28;20083;-21
2021/12/01 03:35:14;;;;;;;6.88;4.22;;;;;;;19.00;53.52;96052.44;10462458;28;20041;-21
2021/12/01 03:40:15;;;;;;;24.48;4.53;;;;;;;18.96;53.71;96056.72;10457216;28;20040;-22
2021/12/01 03:45:16;;;;;;;9.00;4.20;;;;;;;18.95;53.82;96038.97;10457372;28;20496;-22
2021/12/01 03:50:17;;;;;;;8.38;4.13;;;;;;;18.98;53.60;96033.84;10461359;28;20033;-22
2021/12/01 03:55:17;;;;;;;7.97;3.70;;;;;;;18.98;53.88;96033.84;10464177;28;20547;-22
2021/12/01 04:00:18;;;;;;;6.97;4.38;;;;;;;18.99;53.66;96005.94;10459496;28;20037;-22
2021/12/01 04:05:20;;;;;;;5.68;3.47;;;;;;;18.96;53.72;95994.97;10469081;28;20039;-22
2021/12/01 04:10:20;;;;;;;7.78;4.15;;;;;;;18.99;53.58;95984.81;10465737;28;20032;-22
2021/12/01 04:15:21;;;;;;;6.30;4.13;;;;;;;18.96;53.72;95980.63;10469966;28;20120;-22
2021/12/01 04:20:21;;;;;;;8.40;4.65;;;;;;;18.97;54.00;95966.22;10465625;28;20065;-24
2021/12/01 04:25:22;;;;;;;10.20;3.97;;;;;;;18.95;53.84;95957.81;10469770;28;20039;-22
2021/12/01 04:30:24;;;;;;;8.32;3.55;;;;;;;18.97;53.89;95961.16;10466815;28;20272;-22
2021/12/01 04:35:27;;;;;;;8.88;3.90;;;;;;;18.96;53.93;95936.66;10470181;28;20056;-22
2021/12/01 04:40:27;;;;;;;5.43;3.70;;;;;;;18.96;53.72;95918.88;10473113;28;20032;-22
2021/12/01 04:45:31;;;;;;;5.25;3.78;;;;;;;19.00;53.74;95943.38;10466351;28;20424;-21
2021/12/01 04:50:31;;;;;;;9.20;3.83;;;;;;;18.97;53.63;95905.34;10465054;28;20104;-22
2021/12/01 04:55:32;;;;;;;6.53;4.23;;;;;;;19.02;53.73;95904.41;10467955;28;20555;-22
2021/12/01 05:00:35;;;;;;;5.05;4.40;;;;;;;19.01;53.59;95886.69;10459077;28;20300;-22
2021/12/01 05:05:36;;;;;;;12.85;4.28;;;;;;;19.00;53.74;95896.00;10463804;28;20041;-22
2021/12/01 05:10:37;;;;;;;6.15;3.53;;;;;;;19.02;53.52;95875.69;10463465;28;20040;-22
2021/12/01 05:15:37;;;;;;;6.00;3.50;;;;;;;19.03;53.46;95859.59;10469743;28;20029;-22
2021/12/01 05:20:39;;;;;;;6.82;3.78;;;;;;;19.05;53.58;95868.00;10462104;28;20041;-21
2021/12/01 05:25:39;;;;;;;6.57;4.75;;;;;;;18.92;53.73;95862.28;10466422;28;20044;-21
2021/12/01 05:30:40;;;;;;;6.13;2.90;;;;;;;18.81;52.51;95848.09;10468168;28;20393;-23
2021/12/01 05:35:42;;;;;;;5.80;3.27;;;;;;;18.79;52.33;95844.75;10467702;28;20960;-22
2021/12/01 05:40:43;;;;;;;2.85;1.10;;;;;;;17.47;46.44;95795.78;10462719;28;20044;-22
2021/12/01 05:45:45;;;;;;;0.63;0.30;;;;;;;17.62;44.82;95836.13;10469719;28;20091;-22
2021/12/01 05:50:45;;;;;;;0.13;0.10;;;;;;;17.49;44.36;95825.28;10464773;28;20025;-22
2021/12/01 05:55:46;;;;;;;1.65;0.20;;;;;;;17.88;44.33;95816.41;10461532;28;20380;-22
2021/12/01 06:00:46;;;;;;;4.05;0.88;;;;;;;18.34;45.24;95802.34;10464081;28;20431;-23
2021/12/01 06:05:47;;;;;;;4.00;1.48;;;;;;;18.62;48.08;95796.00;10469202;28;20495;-22
2021/12/01 06:10:48;;;;;;;5.25;1.85;;;;;;;18.74;48.62;95786.50;10463388;28;20516;-22
2021/12/01 06:15:49;;;;;;;5.13;1.92;;;;;;;18.51;49.30;95732.78;10472252;28;20483;-22
2021/12/01 06:20:50;;;;;;;6.82;2.50;;;;;;;18.80;49.74;95770.34;10462708;28;20032;-22
2021/12/01 06:25:50;;;;;;;5.75;2.20;;;;;;;18.86;49.96;95742.38;10469764;28;20430;-22
2021/12/01 06:30:51;;;;;;;6.03;2.15;;;;;;;18.78;50.13;95731.50;10463437;28;20068;-22
2021/12/01 06:35:52;;;;;;;6.47;1.55;;;;;;;18.52;45.01;95718.44;10470973;28;20100;-22
2021/12/01 06:40:53;;;;;;;6.50;2.25;;;;;;;18.38;48.48;95695.84;10461832;28;20412;-22
2021/12/01 06:45:53;;;;;;;6.45;1.60;;;;;;;18.75;49.34;95716.38;10465965;28;20037;-22
2021/12/01 06:50:54;;;;;;;4.07;1.25;;;;;;;18.82;49.44;95692.59;10458002;28;20108;-23
2021/12/01 06:55:54;;;;;;;3.00;1.58;;;;;;;18.85;49.73;95683.19;10463269;28;20119;-22
2021/12/01 07:00:55;;;;;;;3.23;1.37;;;;;;;18.73;49.57;95650.47;10458728;28;20385;-22
2021/12/01 07:05:55;;;;;;;7.47;2.47;;;;;;;18.87;50.18;95678.09;10460266;28;20028;-22
2021/12/01 07:10:55;;;;;;;3.70;1.30;;;;;;;18.83;50.27;95653.69;10460241;28;20480;-22
2021/12/01 07:15:56;;;;;;;4.07;1.58;;;;;;;18.77;50.49;95630.97;10461286;28;20388;-22
2021/12/01 07:20:56;;;;;;;1.70;1.13;;;;;;;18.87;50.53;95637.53;10458415;28;20037;-22
2021/12/01 07:25:57;;;;;;;2.80;1.55;;;;;;;18.92;50.36;95623.06;10461666;28;20594;-22
2021/12/01 07:30:58;;;;;;;3.00;1.40;;;;;;;18.91;50.49;95606.19;10469301;28;20548;-22
2021/12/01 07:35:59;;;;;;;3.00;1.70;;;;;;;18.86;50.57;95597.81;10471742;28;20381;-23
2021/12/01 07:40:59;;;;;;;1.90;0.85;;;;;;;18.85;50.77;95609.66;10466377;28;20040;-22
2021/12/01 07:46:02;;;;;;;1.77;1.17;;;;;;;18.84;50.57;95594.47;10471588;28;20053;-22
2021/12/01 07:51:04;;;;;;;2.58;1.10;;;;;;;18.87;50.70;95600.34;10466693;28;20291;-22
2021/12/01 07:56:05;;;;;;;2.60;1.40;;;;;;;18.86;50.81;95583.47;10466827;28;20024;-22
2021/12/01 08:01:05;;;;;;;1.65;1.10;;;;;;;18.93;50.68;95589.22;10465278;28;20050;-22
2021/12/01 08:06:06;;;;;;;2.00;1.13;;;;;;;18.90;50.77;95571.53;10465623;28;20036;-22
2021/12/01 08:11:06;;;;;;;2.35;1.20;;;;;;;18.91;50.84;95570.69;10465872;28;20110;-22
2021/12/01 08:16:06;;;;;;;2.25;1.17;;;;;;;18.91;50.85;95552.94;10467815;28;20029;-22
2021/12/01 08:21:07;;;;;;;1.10;1.00;;;;;;;18.93;50.66;95544.41;10463567;28;20040;-23
2021/12/01 08:26:07;;;;;;;1.67;1.00;;;;;;;18.93;50.57;95526.66;10466229;28;20029;-22
2021/12/01 08:31:08;;;;;;;1.60;1.20;;;;;;;18.90;50.85;95520.81;10470919;28;20029;-22
2021/12/01 08:36:12;;;;;;;1.30;1.10;;;;;;;18.88;50.94;95520.84;10466684;28;20048;-22
2021/12/01 08:41:12;;;;;;;1.40;0.95;;;;;;;18.81;50.80;95488.88;10463932;28;20063;-23
2021/12/01 08:46:13;;;;;;;1.23;0.80;;;;;;;18.83;50.89;95476.19;10468001;28;20037;-22
2021/12/01 08:51:14;;;;;;;0.77;0.63;;;;;;;18.91;50.67;95494.59;10467074;28;20470;-22
2021/12/01 08:56:15;;;;;;;2.33;0.95;;;;;;;18.91;50.95;95507.28;10462717;28;20043;-22
2021/12/01 09:01:16;;;;;;;0.95;0.80;;;;;;;18.89;50.98;95516.59;10463021;28;20033;-22
2021/12/01 09:06:16;;;;;;;2.67;1.13;;;;;;;18.92;50.76;95522.44;10466760;28;20059;-22
2021/12/01 09:11:17;;;;;;;0.90;0.70;;;;;;;18.92;50.79;95483.59;10461011;28;20029;-22
2021/12/01 09:16:17;;;;;;;1.40;0.80;;;;;;;18.94;50.75;95484.38;10462416;28;20118;-22
2021/12/01 09:21:18;;;;;;;1.10;0.80;;;;;;;18.85;50.94;95459.22;10462393;28;20132;-23
2021/12/01 09:26:19;;;;;;;0.90;0.68;;;;;;;18.90;50.90;95448.09;10459212;28;20500;-23
2021/12/01 09:31:20;;;;;;;1.30;0.70;;;;;;;18.86;50.77;95433.00;10464315;28;20108;-22
2021/12/01 09:36:20;;;;;;;0.65;0.60;;;;;;;18.84;50.96;95424.59;10465970;28;20025;-22
2021/12/01 09:41:21;;;;;;;1.10;0.60;;;;;;;18.84;50.95;95401.78;10461254;28;20036;-22
2021/12/01 09:46:23;;;;;;;1.45;0.60;;;;;;;18.92;50.80;95390.56;10460612;28;20031;-22
2021/12/01 09:51:24;;;;;;;0.90;0.73;;;;;;;18.90;51.05;95371.19;10461194;28;20053;-22
2021/12/01 09:56:25;;;;;;;0.98;0.55;;;;;;;18.83;50.89;95346.88;10460647;28;20120;-23
2021/12/01 10:01:27;;;;;;;0.80;0.80;;;;;;;18.93;51.42;95345.78;10461738;28;20039;-23
2021/12/01 10:06:28;;;;;;;1.23;0.82;;;;;;;18.97;50.77;95316.91;10461342;28;20029;-22
2021/12/01 10:11:30;;;;;;;0.98;0.70;;;;;;;18.99;50.89;95316.03;10459735;28;20025;-22
2021/12/01 10:16:34;;;;;;;1.08;0.68;;;;;;;18.98;51.01;95308.44;10472284;28;20603;-22
2021/12/01 10:21:35;;;;;;;1.33;0.60;;;;;;;18.96;50.84;95277.22;10461237;28;20059;-22
2021/12/01 10:26:45;;;;;;;0.95;0.60;;;;;;;18.94;51.00;95282.34;10465313;28;20566;-22
2021/12/01 10:31:52;;;;;;;1.45;0.80;;;;;;;18.89;51.07;95258.78;10461411;28;20028;-22
2021/12/01 10:37:13;;;;;;;1.08;0.73;;;;;;;18.87;50.54;95254.63;10465983;28;20028;-22
2021/12/01 10:42:16;;;;;;;0.95;0.50;;;;;;;18.95;51.09;95258.66;10459253;28;20107;-22
2021/12/01 10:47:16;;;;;;;1.15;0.70;;;;;;;18.97;51.02;95246.75;10462420;28;20041;-22
2021/12/01 10:52:25;;;;;;;0.70;0.60;;;;;;;18.96;51.01;95244.25;10460034;28;20488;-22
2021/12/01 10:57:26;;;;;;;2.38;0.93;;;;;;;19.03;51.01;95253.38;10457375;28;20102;-22
2021/12/01 11:02:26;;;;;;;1.02;0.68;;;;;;;19.01;50.89;95227.22;10458029;28;20037;-23
2021/12/01 11:07:32;;;;;;;0.70;0.60;;;;;;;18.99;51.09;95236.59;10459969;28;20032;-22
2021/12/01 11:12:33;;;;;;;0.73;0.50;;;;;;;18.96;51.08;95206.22;10456550;28;20704;-22
2021/12/01 11:17:41;;;;;;;0.73;0.57;;;;;;;19.01;50.81;95200.13;10460292;28;20052;-22
2021/12/01 11:22:41;;;;;;;0.70;0.52;;;;;;;19.02;51.13;95198.44;10461593;28;20323;-22
2021/12/01 11:27:42;;;;;;;0.90;0.77;;;;;;;18.88;51.17;95177.69;10461004;28;20523;-22
2021/12/01 11:32:42;;;;;;;1.35;0.60;;;;;;;18.95;51.13;95186.81;10457139;28;20434;-22
2021/12/01 11:37:43;;;;;;;19.98;1.70;;;;;;;18.76;48.49;95180.53;10462056;28;20567;-22
2021/12/01 11:42:43;;;;;;;2.53;0.63;;;;;;;18.92;51.37;95180.09;10461322;28;20064;-22
2021/12/01 11:47:47;;;;;;;2.53;0.70;;;;;;;18.92;51.00;95141.25;10460533;28;20492;-22
2021/12/01 11:53:06;;;;;;;3.38;1.05;;;;;;;18.89;51.50;95128.63;10461556;28;20270;-22
2021/12/01 11:58:06;;;;;;;12.77;1.08;;;;;;;18.88;51.58;95115.13;10455594;28;20087;-22
2021/12/01 12:03:27;;;;;;;2.40;1.00;;;;;;;19.02;51.59;95117.28;10461867;28;20025;-22
2021/12/01 12:09:00;;;;;;;1.88;1.10;;;;;;;19.03;51.59;95103.75;10453865;28;20128;-23
2021/12/01 12:14:09;;;;;;;2.97;0.98;;;;;;;19.00;51.84;95103.84;10459569;28;20036;-21
2021/12/01 12:19:10;;;;;;;5.43;1.52;;;;;;;18.95;51.80;95075.22;10465323;28;20503;-22
2021/12/01 12:24:17;;;;;;;4.70;1.40;;;;;;;19.02;51.90;95099.53;10471007;28;20043;-22
2021/12/01 12:29:21;;;;;;;3.88;1.63;;;;;;;19.00;52.29;95102.13;10467293;28;20294;-22
2021/12/01 12:34:23;;;;;;;3.72;1.75;;;;;;;19.03;52.12;95094.44;10463336;28;20033;-21
2021/12/01 12:39:30;;;;;;;4.72;1.85;;;;;;;18.89;52.36;95047.50;10468183;28;20020;-23
2021/12/01 12:44:40;;;;;;;7.22;1.98;;;;;;;19.00;52.48;95068.31;10464686;28;20043;-22
2021/12/01 12:49:49;;;;;;;5.57;2.47;;;;;;;18.98;52.25;95059.91;10470039;28;20033;-22
2021/12/01 12:54:56;;;;;;;6.70;1.92;;;;;;;19.07;52.32;95059.66;10464578;28;20476;-22
2021/12/01 13:00:19;;;;;;;7.45;1.83;;;;;;;19.00;52.57;95038.72;10460371;28;20472;-22
2021/12/01 13:05:38;;;;;;;3.47;1.85;;;;;;;19.02;52.63;95026.81;10457686;28;20039;-22
2021/12/01 13:10:40;;;;;;;6.03;1.80;;;;;;;19.11;52.18;95006.28;10461305;28;20075;-22
2021/12/01 13:15:46;;;;;;;8.50;2.20;;;;;;;19.04;52.25;95003.94;10466869;28;20033;-22
2021/12/01 13:20:52;;;;;;;5.63;1.80;;;;;;;19.09;53.15;94989.44;10459450;28;20037;-22
2021/12/01 13:26:02;;;;;;;7.78;1.58;;;;;;;19.03;53.07;94976.94;10465793;28;20680;-22
2021/12/01 13:31:12;;;;;;;6.38;1.95;;;;;;;18.94;53.16;94985.66;10455721;28;20039;-22
2021/12/01 13:36:15;;;;;;;5.05;1.70;;;;;;;18.92;53.20;94973.88;10465459;28;20041;-22
2021/12/01 13:41:16;;;;;;;3.25;1.65;;;;;;;19.03;53.28;94984.53;10463968;28;20052;-22
2021/12/01 13:46:18;;;;;;;2.92;1.20;;;;;;;18.96;53.49;94966.16;10460049;28;20061;-22
2021/12/01 13:51:19;;;;;;;3.45;1.38;;;;;;;18.97;53.33;94941.59;10457153;28;20048;-22
2021/12/01 13:56:25;;;;;;;3.17;1.48;;;;;;;18.83;53.16;94918.38;10465195;28;20463;-22
2021/12/01 14:01:26;;;;;;;6.30;2.43;;;;;;;19.03;52.90;94972.69;10454754;28;20508;-22
2021/12/01 14:06:29;;;;;;;3.47;1.52;;;;;;;19.02;53.21;94954.97;10462334;28;20439;-22
2021/12/01 14:11:36;;;;;;;3.05;1.35;;;;;;;19.05;53.15;94944.75;10459000;28;20029;-22
2021/12/01 14:16:37;;;;;;;1.88;1.27;;;;;;;19.04;53.11;94948.16;10454360;28;20068;-22
2021/12/01 14:21:38;;;;;;;3.78;1.52;;;;;;;19.06;52.57;94951.47;10461361;28;20120;-22
2021/12/01 14:26:42;;;;;;;3.05;1.60;;;;;;;19.03;52.66;94926.22;10466262;28;20555;-22
2021/12/01 14:31:54;;;;;;;3.10;1.38;;;;;;;19.10;52.81;94937.84;10458058;28;20058;-22
2021/12/01 14:36:55;;;;;;;3.53;1.30;;;;;;;19.04;53.12;94953.22;10461324;28;20387;-23
2021/12/01 14:41:56;;;;;;;3.22;1.10;;;;;;;19.06;52.89;94941.31;10457064;28;20043;-22
2021/12/01 14:47:00;;;;;;;2.22;1.15;;;;;;;19.03;53.10;94947.34;10456692;28;20037;-23
2021/12/01 14:52:00;;;;;;;2.00;1.52;;;;;;;19.02;53.07;94952.44;10459545;28;20067;-22
2021/12/01 14:57:06;;;;;;;2.57;1.20;;;;;;;19.04;52.79;94953.22;10465556;28;20060;-22
2021/12/01 15:02:24;;;;;;;1.73;1.10;;;;;;;19.08;53.02;94962.41;10460301;28;20029;-22
2021/12/01 15:07:24;;;;;;;1.50;0.90;;;;;;;19.06;52.89;94966.69;10455052;28;20032;-23
2021/12/01 15:12:27;;;;;;;2.30;1.30;;;;;;;19.03;52.64;94969.31;10459211;28;20025;-23
2021/12/01 15:17:30;;;;;;;1.73;0.90;;;;;;;19.02;52.60;94965.13;10459305;28;20030;-22
2021/12/01 15:22:30;;;;;;;3.50;1.00;;;;;;;19.04;52.26;94969.28;10464960;28;20110;-23
2021/12/01 15:27:31;;;;;;;1.52;0.88;;;;;;;19.11;52.70;94964.84;10463396;28;20548;-24
2021/12/01 15:32:32;;;;;;;2.03;1.10;;;;;;;19.09;52.40;94986.91;10461791;28;20031;-22
2021/12/01 15:37:32;;;;;;;1.53;1.30;;;;;;;19.04;52.75;94986.19;10463724;28;20378;-21
2021/12/01 15:42:32;;;;;;;1.10;1.00;;;;;;;19.10;52.44;95003.78;10454072;28;20458;-22
2021/12/01 15:47:33;;;;;;;1.02;0.93;;;;;;;19.09;52.40;94957.28;10456176;28;20503;-22
2021/12/01 15:52:33;;;;;;;1.20;0.90;;;;;;;18.98;52.93;94961.84;10465091;28;20033;-22
2021/12/01 15:57:34;;;;;;;2.28;1.10;;;;;;;19.08;52.62;94980.97;10466169;28;20124;-21
2021/12/01 16:02:36;;;;;;;1.17;1.00;;;;;;;19.08;52.54;95015.69;10467917;28;20044;-22
2021/12/01 16:07:36;;;;;;;1.58;1.20;;;;;;;19.07;52.68;95016.53;10468025;28;20059;-23
2021/12/01 16:12:37;;;;;;;1.37;0.83;;;;;;;19.10;52.54;95006.31;10458803;28;20061;-22
2021/12/01 16:17:39;;;;;;;0.75;0.75;;;;;;;19.09;52.68;95037.63;10467844;28;20649;-23
2021/12/01 16:22:42;;;;;;;1.85;1.02;;;;;;;19.01;52.54;94998.97;10471346;28;20037;-22
2021/12/01 16:27:44;;;;;;;1.58;0.82;;;;;;;19.08;52.29;95001.28;10468099;28;20051;-22
2021/12/01 16:32:50;;;;;;;1.15;0.60;;;;;;;19.00;52.63;94998.13;10464215;28;20036;-22
2021/12/01 16:37:53;;;;;;;1.95;1.10;;;;;;;19.04;52.39;95003.94;10467841;28;20439;-22
2021/12/01 16:42:54;;;;;;;0.70;0.60;;;;;;;19.03;52.79;95010.75;10464130;28;20044;-24
2021/12/01 16:47:55;;;;;;;1.13;0.82;;;;;;;19.03;52.43;95007.38;10464774;28;20041;-24
2021/12/01 16:52:55;;;;;;;1.60;0.80;;;;;;;19.03;52.35;95005.66;10466107;28;20039;-22
2021/12/01 16:57:58;;;;;;;1.02;0.65;;;;;;;19.06;52.20;95007.25;10459480;28;20039;-22
2021/12/01 17:03:19;;;;;;;1.42;0.77;;;;;;;19.09;52.64;95045.25;10465885;28;20040;-22
2021/12/01 17:13:39;;;;;;;1.42;0.93;;;;;;;19.02;53.05;95041.22;10459099;28;20055;-23
2021/12/01 17:18:42;;;;;;;0.68;0.60;;;;;;;18.84;52.94;95016.38;10465519;28;20037;-22
2021/12/01 17:23:44;;;;;;;1.73;1.02;;;;;;;19.02;52.95;95067.38;10479570;28;20051;-22
2021/12/01 17:28:45;;;;;;;1.48;0.80;;;;;;;18.98;53.06;95065.81;10471917;28;20389;-22
2021/12/01 17:33:47;;;;;;;2.65;0.80;;;;;;;18.99;53.06;95066.66;10469475;28;20035;-21
2021/12/01 17:38:50;;;;;;;1.10;0.70;;;;;;;18.98;53.21;95064.97;10474155;28;20070;-22
2021/12/01 17:43:53;;;;;;;1.15;0.82;;;;;;;18.98;53.41;95070.91;10471914;28;20036;-22
2021/12/01 17:48:54;;;;;;;1.05;0.80;;;;;;;18.97;53.58;95073.47;10473224;28;20037;-22
2021/12/01 17:53:54;;;;;;;0.68;0.60;;;;;;;18.99;53.40;95072.56;10466583;28;20058;-22
2021/12/01 17:58:55;;;;;;;0.55;0.55;;;;;;;18.98;53.63;95088.66;10464352;28;20484;-22
2021/12/01 18:03:55;;;;;;;1.13;0.50;;;;;;;18.97;53.58;95076.00;10459342;28;20040;-23
2021/12/01 18:08:55;;;;;;;1.17;0.60;;;;;;;18.97;53.73;95069.25;10464604;28;20024;-22
2021/12/01 18:13:56;;;;;;;1.97;0.83;;;;;;;18.97;53.54;95079.38;10459222;28;20036;-22
2021/12/01 18:18:56;;;;;;;4.15;0.80;;;;;;;19.00;53.64;95075.94;10461234;28;20507;-22
2021/12/01 18:23:58;;;;;;;2.27;0.70;;;;;;;19.15;53.05;95096.63;10464496;28;20035;-22
2021/12/01 18:28:59;;;;;;;5.38;0.80;;;;;;;19.11;53.35;95101.81;10461159;28;20453;-22
2021/12/01 18:33:59;;;;;;;0.80;0.70;;;;;;;19.03;53.14;95094.44;10450371;28;20127;-22
2021/12/01 18:39:00;;;;;;;0.83;0.70;;;;;;;19.10;53.25;95100.97;10458102;28;20036;-22
2021/12/01 18:44:00;;;;;;;1.55;0.60;;;;;;;19.11;53.11;95107.75;10444664;28;20051;-22
2021/12/01 18:49:04;;;;;;;1.38;0.60;;;;;;;19.09;53.08;95111.19;10447327;28;20119;-22
2021/12/01 18:54:05;;;;;;;1.15;1.05;;;;;;;19.04;53.01;95113.84;10458927;28;20598;-21
2021/12/01 18:59:06;;;;;;;2.60;0.88;;;;;;;19.06;53.12;95129.00;10449906;28;20171;-22
2021/12/01 19:04:06;;;;;;;1.83;0.88;;;;;;;18.91;52.71;95094.75;10449077;28;20040;-22
2021/12/01 19:09:06;;;;;;;1.55;0.50;;;;;;;19.05;53.51;95128.19;10450135;28;20107;-21
2021/12/01 19:14:07;;;;;;;1.37;0.90;;;;;;;19.13;52.98;95146.56;10450302;28;20037;-21
2021/12/01 19:19:08;;;;;;;1.27;1.05;;;;;;;19.11;52.97;95144.94;10447605;28;20302;-22
2021/12/01 19:24:09;;;;;;;1.90;0.98;;;;;;;19.12;52.76;95144.06;10456967;28;20040;-22
2021/12/01 19:29:11;;;;;;;1.15;0.57;;;;;;;19.10;53.00;95151.69;10461026;28;20831;-21
2021/12/01 19:34:11;;;;;;;3.63;0.65;;;;;;;18.98;51.93;95161.34;10463265;28;20093;-22
2021/12/01 19:39:12;;;;;;;1.27;0.60;;;;;;;18.92;52.17;95146.31;10465522;28;20047;-22
2021/12/01 19:44:14;;;;;;;22.27;2.53;;;;;;;19.01;52.47;95156.22;10456159;28;20480;-22
2021/12/01 19:49:15;;;;;;;2.50;1.05;;;;;;;19.06;52.47;95159.44;10471171;28;20410;-22
2021/12/01 19:54:16;;;;;;;1.90;0.60;;;;;;;19.05;52.49;95145.94;10464486;28;20119;-24
2021/12/01 19:59:16;;;;;;;2.45;0.80;;;;;;;19.06;52.50;95164.50;10456717;28;20512;-22
2021/12/01 20:04:17;;;;;;;2.28;0.75;;;;;;;19.08;52.37;95172.94;10460024;28;20048;-22
2021/12/01 20:09:18;;;;;;;2.17;0.60;;;;;;;19.05;52.58;95180.59;10460828;28;20571;-22
2021/12/01 20:14:21;;;;;;;1.25;0.55;;;;;;;19.02;52.59;95173.91;10462738;28;20040;-21
2021/12/01 20:19:24;;;;;;;1.70;0.60;;;;;;;19.09;52.45;95169.53;10462579;28;20082;-22
2021/12/01 20:24:30;;;;;;;2.05;0.57;;;;;;;19.07;52.47;95168.72;10457793;28;20075;-22
2021/12/01 20:29:32;;;;;;;0.45;0.40;;;;;;;19.04;52.79;95178.94;10466261;28;20033;-22
2021/12/01 20:34:33;;;;;;;0.93;0.40;;;;;;;19.09;52.20;95184.75;10471121;28;21156;-21
2021/12/01 20:39:38;;;;;;;0.73;0.50;;;;;;;19.05;52.73;95178.91;10472442;28;20087;-21
2021/12/01 20:44:41;;;;;;;1.17;0.50;;;;;;;19.06;52.67;95164.50;10466462;28;20036;-22
2021/12/01 20:55:10;;;;;;;2.85;0.98;;;;;;;19.08;52.55;95163.59;10455554;28;20124;-22
2021/12/01 21:05:40;;;;;;;0.52;0.47;;;;;;;19.01;52.54;95146.88;10430666;28;20053;-22
2021/12/01 21:11:15;;;;;;;2.40;0.50;;;;;;;19.03;52.74;95144.31;10461407;28;20036;-23
2021/12/01 21:16:09;;;;;;;1.30;0.60;;;;;;;19.03;52.60;95135.03;10462309;28;20481;-22
2021/12/01 21:21:15;;;;;;;0.68;0.35;;;;;;;19.01;52.77;95134.19;10456708;28;20291;-22
2021/12/01 21:26:18;;;;;;;0.98;0.50;;;;;;;19.02;52.72;95124.91;10453558;28;20104;-22
2021/12/01 21:31:22;;;;;;;2.50;0.50;;;;;;;19.02;52.66;95115.56;10451127;28;20636;-22
2021/12/01 21:36:28;;;;;;;1.20;0.60;;;;;;;19.02;52.73;95122.38;10458043;28;20043;-22
2021/12/01 21:41:28;;;;;;;0.73;0.47;;;;;;;19.01;52.95;95139.28;10464204;28;20113;-22
2021/12/01 21:46:29;;;;;;;1.35;0.70;;;;;;;19.01;53.05;95125.78;10460188;28;20619;-22
2021/12/01 21:51:29;;;;;;;2.45;1.13;;;;;;;18.96;53.16;95107.31;10469921;28;20545;-22
2021/12/01 21:56:32;;;;;;;3.42;1.00;;;;;;;19.01;53.53;95126.59;10462757;28;20035;-23
2021/12/01 22:01:33;;;;;;;4.97;0.90;;;;;;;18.99;53.62;95118.19;10468126;28;20033;-22
2021/12/01 22:06:34;;;;;;;3.10;1.15;;;;;;;19.00;53.76;95114.78;10466604;28;20037;-22
2021/12/01 22:11:39;;;;;;;4.82;0.80;;;;;;;18.99;53.56;95120.75;10460667;28;20436;-22
2021/12/01 22:16:40;;;;;;;3.47;1.05;;;;;;;19.00;53.72;95129.19;10462760;28;20112;-22
2021/12/01 22:21:43;;;;;;;2.63;0.93;;;;;;;18.97;53.77;95119.13;10458370;28;20112;-22
2021/12/01 22:26:48;;;;;;;2.28;0.85;;;;;;;18.95;53.62;95105.66;10458364;28;20087;-22
2021/12/01 22:31:48;;;;;;;5.10;0.95;;;;;;;19.01;53.59;95111.38;10460939;28;20028;-23
2021/12/01 22:36:49;;;;;;;1.50;0.93;;;;;;;19.01;53.31;95115.63;10456439;28;20437;-23
2021/12/01 22:41:49;;;;;;;3.40;0.93;;;;;;;19.00;53.60;95121.59;10458337;28;20116;-22
2021/12/01 22:46:50;;;;;;;3.63;1.20;;;;;;;18.88;53.42;95102.47;10462369;28;20109;-21
2021/12/01 22:51:51;;;;;;;2.25;0.80;;;;;;;18.93;53.57;95109.94;10455861;28;20522;-22
2021/12/01 22:56:56;;;;;;;7.85;1.00;;;;;;;19.00;53.32;95119.88;10456738;28;20051;-22
2021/12/01 23:01:58;;;;;;;4.25;1.15;;;;;;;18.98;53.48;95130.91;10459569;28;20591;-22
2021/12/01 23:07:00;;;;;;;3.45;0.90;;;;;;;18.91;53.55;95124.38;10459043;28;20037;-23
2021/12/01 23:12:02;;;;;;;2.58;0.80;;;;;;;18.94;53.67;95129.34;10455650;28;20069;-22
2021/12/01 23:17:03;;;;;;;3.13;0.90;;;;;;;18.97;53.33;95119.13;10457042;28;20131;-23
2021/12/01 23:22:11;;;;;;;2.88;0.95;;;;;;;18.96;53.40;95125.06;10457337;28;20033;-22
2021/12/01 23:32:42;;;;;;;2.10;1.10;;;;;;;18.99;53.34;95127.53;10456962;28;20040;-22
2021/12/01 23:37:43;;;;;;;2.55;0.80;;;;;;;18.96;53.46;95123.38;10455488;28;20048;-23
2021/12/01 23:42:43;;;;;;;2.70;0.90;;;;;;;18.97;53.30;95140.25;10457921;28;20045;-22
2021/12/01 23:52:56;;;;;;;4.03;0.93;;;;;;;18.98;53.33;95126.69;10464259;28;20487;-22
2021/12/01 23:57:56;;;;;;;3.30;0.90;;;;;;;18.98;53.45;95130.91;10462038;28;20036;-22
